Time;durP1;ratioP1;P1;durP2;ratioP2;P2;SDS_P1;SDS_P2;PMS_P1;PMS_P2;Temp;Humidity;BMP_temperature;BMP_pressure;BME280_temperature;BME280_humidity;BME280_pressure;Samples;Min_cycle;Max_cycle;Signal;HPM_P1;HPM_P2
2021/07/28 00:00:12;;;;;;;;;;;;;;;27.23;49.48;100767.78;1783010;78;20324;-56
2021/07/28 00:02:40;;;;;;;;;;;;;;;27.23;49.50;100763.59;1786326;78;20175;-57
2021/07/28 00:05:07;;;;;;;;;;;;;;;27.23;49.51;100765.58;1790493;78;20199;-56
2021/07/28 00:07:33;;;;;;;;;;;;;;;27.23;49.52;100764.17;1787332;78;21107;-56
2021/07/28 00:09:59;;;;;;;;;;;;;;;27.24;49.52;100762.40;1785473;78;20241;-57
2021/07/28 00:12:25;;;;;;;;;;;;;;;27.24;49.52;100757.42;1783159;78;20238;-56
2021/07/28 00:14:51;;;;;;;;;;;;;;;27.23;49.54;100756.61;1787183;78;20218;-57
2021/07/28 00:17:17;;;;;;;;;;;;;;;27.23;49.56;100756.61;1784718;78;20769;-57
2021/07/28 00:19:57;;;;;;;;;;;;;;;27.24;49.54;100753.23;1787059;78;20931;-57
2021/07/28 00:25:06;;;;;;;;;;;;;;;27.23;49.57;100753.82;1787880;78;20771;-57
2021/07/28 00:27:34;;;;;;;;;;;;;;;27.24;49.57;100760.22;1784533;78;20442;-57
2021/07/28 00:30:00;;;;;;;;;;;;;;;27.24;49.57;100761.61;1789546;80;20559;-57
2021/07/28 00:32:26;;;;;;;;;;;;;;;27.24;49.57;100754.63;1778286;78;21125;-57
2021/07/28 00:34:52;;;;;;;;;;;;;;;27.23;49.59;100747.42;1786459;78;20302;-57
2021/07/28 00:37:18;;;;;;;;;;;;;;;27.24;49.62;100756.03;1786081;78;20215;-57
2021/07/28 00:39:44;;;;;;;;;;;;;;;27.23;49.60;100755.22;1786464;78;20226;-57
2021/07/28 00:42:10;;;;;;;;;;;;;;;27.23;49.61;100751.61;1790648;78;20172;-57
2021/07/28 00:44:36;;;;;;;;;;;;;;;27.24;49.65;100754.63;1791747;78;21197;-57
2021/07/28 00:47:02;;;;;;;;;;;;;;;27.23;49.65;100760.80;1776473;80;20177;-57
2021/07/28 00:49:29;;;;;;;;;;;;;;;27.22;49.68;100757.78;1786420;80;20188;-57
2021/07/28 00:52:01;;;;;;;;;;;;;;;27.24;49.66;100758.20;1786856;78;20207;-56
2021/07/28 00:54:23;;;;;;;;;;;;;;;27.24;49.69;100751.84;1785636;78;20256;-56
2021/07/28 00:56:49;;;;;;;;;;;;;;;27.23;49.71;100755.22;1786703;78;21162;-56
2021/07/28 00:59:15;;;;;;;;;;;;;;;27.24;49.70;100753.23;1788721;78;21810;-57
2021/07/28 01:01:42;;;;;;;;;;;;;;;27.24;49.69;100757.42;1797274;78;20147;-56
2021/07/28 01:04:08;;;;;;;;;;;;;;;27.23;49.72;100759.41;1799562;78;20139;-57
2021/07/28 01:06:34;;;;;;;;;;;;;;;27.23;49.72;100759.41;1757610;80;20215;-57
2021/07/28 01:09:00;;;;;;;;;;;;;;;27.23;49.73;100759.41;1761584;79;21126;-57
2021/07/28 01:11:27;;;;;;;;;;;;;;;27.23;49.75;100758.01;1798142;78;20230;-57
2021/07/28 01:13:55;;;;;;;;;;;;;;;27.25;49.76;100761.23;1771519;79;20221;-57
2021/07/28 01:16:23;;;;;;;;;;;;;;;27.24;49.77;100762.40;1782497;79;20190;-56
2021/07/28 01:18:49;;;;;;;;;;;;;;;27.23;49.78;100763.59;1804829;78;20174;-56
2021/07/28 01:21:15;;;;;;;;;;;;;;;27.24;49.76;100756.03;1806117;79;21132;-56
2021/07/28 01:23:42;;;;;;;;;;;;;;;27.24;49.78;100761.00;1808930;78;20331;-57
2021/07/28 01:26:08;;;;;;;;;;;;;;;27.24;49.78;100753.23;1807697;78;20194;-56
2021/07/28 01:28:35;;;;;;;;;;;;;;;27.24;49.79;100747.03;1805731;78;20439;-56
2021/07/28 01:31:10;;;;;;;;;;;;;;;27.24;49.79;100742.06;1804472;78;20171;-56
2021/07/28 01:33:42;;;;;;;;;;;;;;;27.24;49.82;100744.24;1801695;78;20996;-56
2021/07/28 01:36:09;;;;;;;;;;;;;;;27.24;49.84;100735.86;1802432;78;20306;-56
2021/07/28 01:38:35;;;;;;;;;;;;;;;27.24;49.85;100737.26;1806264;78;20435;-56
2021/07/28 01:41:03;;;;;;;;;;;;;;;27.23;49.84;100735.66;1804925;78;20496;-56
2021/07/28 01:43:30;;;;;;;;;;;;;;;27.25;49.85;100736.67;1844390;76;20183;-56
2021/07/28 01:45:57;;;;;;;;;;;;;;;27.24;49.88;100738.66;1841081;76;20986;-58
2021/07/28 01:48:23;;;;;;;;;;;;;;;27.23;49.86;100735.66;1850116;76;20182;-56
2021/07/28 01:50:49;;;;;;;;;;;;;;;27.25;49.85;100738.07;1838032;76;20214;-55
2021/07/28 01:53:16;;;;;;;;;;;;;;;27.23;49.89;100724.48;1851531;76;20526;-56
2021/07/28 01:55:42;;;;;;;;;;;;;;;27.23;49.90;100727.87;1841590;76;20169;-56
2021/07/28 01:58:09;;;;;;;;;;;;;;;27.24;49.90;100729.49;1845956;76;21229;-56
2021/07/28 02:00:35;;;;;;;;;;;;;;;27.24;49.91;100728.09;1843160;77;20155;-56
2021/07/28 02:03:04;;;;;;;;;;;;;;;27.24;49.93;100726.08;1844868;76;20186;-56
2021/07/28 02:05:34;;;;;;;;;;;;;;;27.23;49.93;100734.27;1841564;76;20177;-56
2021/07/28 02:08:08;;;;;;;;;;;;;;;27.23;49.96;100731.47;1845752;76;20207;-56
2021/07/28 02:10:32;;;;;;;;;;;;;;;27.23;49.96;100728.68;1839046;76;22094;-56
2021/07/28 02:12:58;;;;;;;;;;;;;;;27.23;49.97;100732.05;1846174;76;20144;-56
2021/07/28 02:15:25;;;;;;;;;;;;;;;27.24;49.97;100740.66;1843318;76;20206;-56
2021/07/28 02:17:51;;;;;;;;;;;;;;;27.23;49.99;100727.28;1843721;76;20199;-56
2021/07/28 02:20:18;;;;;;;;;;;;;;;27.24;49.99;100730.89;1846838;76;20140;-56
2021/07/28 02:22:45;;;;;;;;;;;;;;;27.25;50.02;100729.69;1847443;76;21110;-56
2021/07/28 02:25:12;;;;;;;;;;;;;;;27.24;50.02;100725.30;1838899;76;20150;-55
2021/07/28 02:27:38;;;;;;;;;;;;;;;27.24;50.02;100733.06;1838291;76;20404;-57
2021/07/28 02:30:06;;;;;;;;;;;;;;;27.24;50.02;100727.48;1840922;76;20160;-57
2021/07/28 02:32:32;;;;;;;;;;;;;;;27.24;50.04;100728.09;1839935;76;20193;-56
2021/07/28 02:34:58;;;;;;;;;;;;;;;27.24;50.07;100728.87;1840590;76;21090;-57
2021/07/28 02:37:24;;;;;;;;;;;;;;;27.25;50.05;100731.09;1839217;76;20306;-56
2021/07/28 02:39:50;;;;;;;;;;;;;;;27.25;50.08;100739.47;1835186;76;20180;-56
2021/07/28 02:42:16;;;;;;;;;;;;;;;27.25;50.09;100736.09;1838328;76;20252;-56
2021/07/28 02:44:42;;;;;;;;;;;;;;;27.24;50.10;100735.08;1837485;76;20781;-56
2021/07/28 02:47:09;;;;;;;;;;;;;;;27.25;50.11;100733.88;1839245;76;21082;-56
2021/07/28 02:49:35;;;;;;;;;;;;;;;27.25;50.14;100729.69;1841158;76;20505;-56
2021/07/28 02:52:01;;;;;;;;;;;;;;;27.25;50.14;100732.48;1841656;76;20224;-57
2021/07/28 02:54:27;;;;;;;;;;;;;;;27.24;50.14;100732.28;1843537;76;20495;-56
2021/07/28 02:56:56;;;;;;;;;;;;;;;27.24;50.16;100733.06;1844776;76;20433;-57
2021/07/28 02:59:21;;;;;;;;;;;;;;;27.25;50.17;100731.91;1835307;76;21299;-56
2021/07/28 03:01:49;;;;;;;;;;;;;;;27.25;50.19;100737.48;1839510;76;20997;-57
2021/07/28 03:04:16;;;;;;;;;;;;;;;27.25;50.20;100738.07;1838245;76;20191;-57
2021/07/28 03:06:42;;;;;;;;;;;;;;;27.25;50.21;100726.31;1839844;76;20145;-57
2021/07/28 03:09:08;;;;;;;;;;;;;;;27.25;50.22;100722.71;1842819;76;20180;-57
2021/07/28 03:11:34;;;;;;;;;;;;;;;27.24;50.24;100731.67;1841538;76;21422;-57
2021/07/28 03:14:01;;;;;;;;;;;;;;;27.25;50.26;100724.11;1843381;76;20377;-57
2021/07/28 03:16:26;;;;;;;;;;;;;;;27.25;50.29;100720.73;1843515;76;20399;-57
2021/07/28 03:18:53;;;;;;;;;;;;;;;27.25;50.28;100724.11;1840106;76;20276;-57
2021/07/28 03:21:19;;;;;;;;;;;;;;;27.25;50.29;100723.52;1839796;76;20146;-56
2021/07/28 03:23:45;;;;;;;;;;;;;;;27.25;50.31;100718.52;1840992;76;20940;-56
2021/07/28 03:26:11;;;;;;;;;;;;;;;27.26;50.33;100717.35;1840186;76;20193;-56
2021/07/28 03:28:37;;;;;;;;;;;;;;;27.25;50.35;100712.34;1837839;76;20280;-57
2021/07/28 03:31:03;;;;;;;;;;;;;;;27.25;50.36;100717.94;1846471;76;20264;-56
2021/07/28 03:33:29;;;;;;;;;;;;;;;27.26;50.38;100728.52;1842281;76;20200;-56
2021/07/28 03:35:55;;;;;;;;;;;;;;;27.25;50.38;100724.92;1843336;76;20986;-57
2021/07/28 03:38:21;;;;;;;;;;;;;;;27.26;50.40;100721.54;1836074;76;20205;-57
2021/07/28 03:40:47;;;;;;;;;;;;;;;27.25;50.40;100720.73;1837223;76;20706;-57
2021/07/28 03:43:14;;;;;;;;;;;;;;;27.26;50.42;100730.73;1842308;76;20330;-57
2021/07/28 03:45:40;;;;;;;;;;;;;;;27.26;50.42;100724.34;1841408;76;20136;-57
2021/07/28 03:48:06;;;;;;;;;;;;;;;27.26;50.45;100722.36;1840641;76;21029;-57
2021/07/28 03:50:32;;;;;;;;;;;;;;;27.25;50.47;100724.92;1839676;76;20299;-57
2021/07/28 03:53:00;;;;;;;;;;;;;;;27.26;50.48;100726.55;1839036;76;20161;-57
2021/07/28 03:55:26;;;;;;;;;;;;;;;27.26;50.48;100727.94;1813093;77;20178;-57
2021/07/28 03:57:52;;;;;;;;;;;;;;;27.26;50.49;100729.34;1843045;76;20201;-57
2021/07/28 04:00:19;;;;;;;;;;;;;;;27.26;50.49;100737.72;1840742;76;23325;-57
2021/07/28 04:02:45;;;;;;;;;;;;;;;27.26;50.52;100737.72;1837920;76;20490;-57
2021/07/28 04:05:12;;;;;;;;;;;;;;;27.26;50.53;100736.91;1835651;76;20204;-56
2021/07/28 04:07:38;;;;;;;;;;;;;;;27.27;50.54;100737.13;1836564;76;20224;-56
2021/07/28 04:10:04;;;;;;;;;;;;;;;27.28;50.53;100740.74;1841066;76;20179;-57
2021/07/28 04:12:30;;;;;;;;;;;;;;;27.26;50.57;100732.13;1843445;76;21336;-57
2021/07/28 04:14:56;;;;;;;;;;;;;;;27.28;50.55;100740.74;1839765;76;20213;-56
2021/07/28 04:17:22;;;;;;;;;;;;;;;27.28;50.57;100747.14;1836635;77;20312;-57
2021/07/28 04:19:49;;;;;;;;;;;;;;;27.28;50.58;100747.73;1838004;76;20747;-56
2021/07/28 04:22:17;;;;;;;;;;;;;;;27.26;50.60;100746.09;1836618;76;20219;-57
2021/07/28 04:24:43;;;;;;;;;;;;;;;27.27;50.60;100746.91;1841551;76;21152;-57
2021/07/28 04:27:09;;;;;;;;;;;;;;;27.28;50.60;100746.33;1840992;76;20271;-57
2021/07/28 04:29:35;;;;;;;;;;;;;;;27.28;50.64;100741.55;1841411;76;20458;-57
2021/07/28 04:32:01;;;;;;;;;;;;;;;27.28;50.63;100737.95;1838933;76;20179;-57
2021/07/28 04:34:27;;;;;;;;;;;;;;;27.27;50.63;100741.33;1830435;76;20205;-58
2021/07/28 04:36:54;;;;;;;;;;;;;;;27.28;50.65;100746.53;1836756;76;21008;-57
2021/07/28 04:39:20;;;;;;;;;;;;;;;27.29;50.64;100744.55;1830638;76;20192;-58
2021/07/28 04:41:46;;;;;;;;;;;;;;;27.28;50.66;100744.34;1841856;76;20428;-58
2021/07/28 04:44:12;;;;;;;;;;;;;;;27.28;50.69;100732.56;1839770;76;20212;-58
2021/07/28 04:46:38;;;;;;;;;;;;;;;27.28;50.67;100738.14;1837455;76;20409;-57
2021/07/28 04:49:04;;;;;;;;;;;;;;;27.28;50.71;100732.56;1836696;76;21013;-56
2021/07/28 04:51:30;;;;;;;;;;;;;;;27.30;50.71;100738.37;1840616;76;20616;-57
2021/07/28 04:53:56;;;;;;;;;;;;;;;27.31;50.72;100738.61;1840436;76;20348;-57
2021/07/28 04:56:22;;;;;;;;;;;;;;;27.31;50.72;100735.81;1835075;76;20246;-57
2021/07/28 04:58:48;;;;;;;;;;;;;;;27.30;50.77;100736.39;1834688;76;20198;-58
2021/07/28 05:01:13;;;;;;;;;;;;;;;27.31;50.76;100733.02;1835401;76;21125;-57
2021/07/28 05:03:39;;;;;;;;;;;;;;;27.30;50.77;100728.02;1842743;76;20772;-57
2021/07/28 05:06:05;;;;;;;;;;;;;;;27.30;50.79;100730.81;1839923;76;20260;-57
2021/07/28 05:08:31;;;;;;;;;;;;;;;27.30;50.81;100728.02;1840419;76;20154;-57
2021/07/28 05:10:57;;;;;;;;;;;;;;;27.31;50.82;100726.03;1839006;76;20728;-57
2021/07/28 05:13:22;;;;;;;;;;;;;;;27.31;50.81;100733.02;1840177;76;22020;-56
2021/07/28 05:15:50;;;;;;;;;;;;;;;27.31;50.82;100727.43;1843550;76;20260;-57
2021/07/28 05:18:16;;;;;;;;;;;;;;;27.31;50.83;100728.25;1843149;76;20163;-57
2021/07/28 05:20:42;;;;;;;;;;;;;;;27.32;50.84;100731.27;1839847;76;20195;-57
2021/07/28 05:23:08;;;;;;;;;;;;;;;27.32;50.87;100730.45;1839152;76;20231;-56
2021/07/28 05:25:34;;;;;;;;;;;;;;;27.31;50.88;100726.84;1838084;76;21314;-57
2021/07/28 05:28:00;;;;;;;;;;;;;;;27.33;50.88;100726.50;1840653;76;20192;-57
2021/07/28 05:30:27;;;;;;;;;;;;;;;27.31;50.89;100724.64;1839613;77;20163;-56
2021/07/28 05:32:54;;;;;;;;;;;;;;;27.30;50.88;100728.02;1840823;76;20198;-56
2021/07/28 05:35:19;;;;;;;;;;;;;;;27.31;50.90;100730.22;1843372;76;20077;-57
2021/07/28 05:37:45;;;;;;;;;;;;;;;27.30;50.90;100730.81;1837118;76;20979;-57
2021/07/28 05:40:12;;;;;;;;;;;;;;;27.31;50.91;100732.44;1845623;76;20162;-57
2021/07/28 05:42:38;;;;;;;;;;;;;;;27.32;50.93;100734.65;1842152;76;20542;-57
2021/07/28 05:45:05;;;;;;;;;;;;;;;27.31;50.91;100735.23;1846529;76;20676;-57
2021/07/28 05:47:31;;;;;;;;;;;;;;;27.31;50.94;100733.83;1842044;76;20406;-57
2021/07/28 05:50:00;;;;;;;;;;;;;;;27.32;50.94;100731.85;1838004;76;20725;-57
2021/07/28 05:52:26;;;;;;;;;;;;;;;27.32;50.95;100730.45;1844486;76;20203;-57
2021/07/28 05:54:52;;;;;;;;;;;;;;;27.32;50.96;100733.25;1838299;76;20199;-58
2021/07/28 05:57:18;;;;;;;;;;;;;;;27.30;50.96;100730.81;1832205;76;20395;-57
2021/07/28 05:59:44;;;;;;;;;;;;;;;27.31;50.99;100740.81;1842507;76;20136;-56
2021/07/28 06:02:10;;;;;;;;;;;;;;;27.32;50.99;100740.23;1850340;76;21390;-58
2021/07/28 06:04:36;;;;;;;;;;;;;;;27.32;50.99;100742.45;1844709;76;20180;-57
2021/07/28 06:07:02;;;;;;;;;;;;;;;27.32;51.00;100745.23;1842519;76;20101;-57
2021/07/28 06:09:28;;;;;;;;;;;;;;;27.32;51.03;100731.85;1841492;76;20406;-58
2021/07/28 06:11:54;;;;;;;;;;;;;;;27.32;51.04;100733.25;1840857;76;20180;-57
2021/07/28 06:14:20;;;;;;;;;;;;;;;27.32;51.06;100731.85;1838726;76;21153;-57
2021/07/28 06:16:47;;;;;;;;;;;;;;;27.32;51.06;100736.05;1838736;76;20246;-57
2021/07/28 06:19:13;;;;;;;;;;;;;;;27.32;51.07;100733.25;1842578;76;20126;-58
2021/07/28 06:21:39;;;;;;;;;;;;;;;27.31;51.08;100728.83;1840506;76;20407;-57
2021/07/28 06:24:05;;;;;;;;;;;;;;;27.32;51.09;100732.66;1835748;76;20187;-57
2021/07/28 06:26:30;;;;;;;;;;;;;;;27.32;51.10;100734.65;1847690;76;21116;-57
2021/07/28 06:28:57;;;;;;;;;;;;;;;27.31;51.12;100733.83;1842278;76;20174;-57
2021/07/28 06:31:23;;;;;;;;;;;;;;;27.31;51.10;100735.81;1839555;76;20122;-57
2021/07/28 06:33:49;;;;;;;;;;;;;;;27.32;51.13;100733.25;1843160;76;20120;-57
2021/07/28 06:36:15;;;;;;;;;;;;;;;27.31;51.16;100740.81;1842043;76;20109;-58
2021/07/28 06:38:41;;;;;;;;;;;;;;;27.32;51.14;100737.44;1841731;76;20525;-58
2021/07/28 06:41:07;;;;;;;;;;;;;;;27.31;51.15;100746.41;1835894;76;20394;-57
2021/07/28 06:43:33;;;;;;;;;;;;;;;27.32;51.18;100736.05;1835527;76;20392;-57
2021/07/28 06:45:59;;;;;;;;;;;;;;;27.32;51.18;100737.44;1842861;76;20146;-57
2021/07/28 06:48:25;;;;;;;;;;;;;;;27.31;51.20;100740.00;1845692;76;20199;-57
2021/07/28 06:50:52;;;;;;;;;;;;;;;27.31;51.19;100736.62;1837867;76;21061;-58
2021/07/28 06:53:18;;;;;;;;;;;;;;;27.31;51.20;100735.23;1839236;77;20089;-57
2021/07/28 06:55:44;;;;;;;;;;;;;;;27.32;51.21;100734.65;1843302;76;20241;-58
2021/07/28 06:58:10;;;;;;;;;;;;;;;27.31;51.21;100735.23;1838459;76;20213;-57
2021/07/28 07:00:36;;;;;;;;;;;;;;;27.32;51.23;100731.85;1845580;77;20700;-57
2021/07/28 07:03:02;;;;;;;;;;;;;;;27.31;51.23;100730.22;1843696;76;20957;-57
2021/07/28 07:05:29;;;;;;;;;;;;;;;27.31;51.24;100726.03;1841485;76;20687;-57
2021/07/28 07:07:54;;;;;;;;;;;;;;;27.33;51.25;100729.29;1842553;76;20128;-56
2021/07/28 07:10:21;;;;;;;;;;;;;;;27.32;51.26;100733.25;1843165;76;20243;-56
2021/07/28 07:12:47;;;;;;;;;;;;;;;27.31;51.25;100729.64;1830804;76;20132;-57
2021/07/28 07:15:13;;;;;;;;;;;;;;;27.31;51.27;100729.64;1836973;76;21029;-57
2021/07/28 07:17:39;;;;;;;;;;;;;;;27.32;51.27;100735.45;1840677;76;20140;-57
2021/07/28 07:20:06;;;;;;;;;;;;;;;27.32;51.28;100737.44;1836614;76;20201;-57
2021/07/28 07:22:32;;;;;;;;;;;;;;;27.31;51.28;100729.64;1835892;76;20179;-57
2021/07/28 07:24:58;;;;;;;;;;;;;;;27.32;51.28;100736.05;1835374;76;20158;-57
2021/07/28 07:27:24;;;;;;;;;;;;;;;27.31;51.28;100729.64;1835154;76;21053;-57
2021/07/28 07:29:50;;;;;;;;;;;;;;;27.32;51.29;100723.47;1838963;76;20696;-57
2021/07/28 07:32:23;;;;;;;;;;;;;;;27.32;51.29;100729.88;1824746;76;20163;-57
2021/07/28 07:34:50;;;;;;;;;;;;;;;27.32;51.31;100735.45;1839574;76;20143;-58
2021/07/28 07:37:16;;;;;;;;;;;;;;;27.33;51.29;100735.66;1833790;76;20154;-58
2021/07/28 07:39:42;;;;;;;;;;;;;;;27.33;51.31;100732.08;1831190;76;21109;-58
2021/07/28 07:42:08;;;;;;;;;;;;;;;27.32;51.29;100732.66;1836056;76;20791;-58
2021/07/28 07:44:34;;;;;;;;;;;;;;;27.32;51.31;100732.66;1835272;76;20248;-56
2021/07/28 07:47:00;;;;;;;;;;;;;;;27.32;51.29;100729.88;1831654;76;20158;-57
2021/07/28 07:49:26;;;;;;;;;;;;;;;27.33;51.33;100727.89;1833193;76;20178;-57
2021/07/28 07:51:52;;;;;;;;;;;;;;;27.33;51.32;100729.29;1828997;76;21118;-57
2021/07/28 07:54:17;;;;;;;;;;;;;;;27.32;51.32;100727.08;1830530;76;20773;-57
2021/07/28 07:56:43;;;;;;;;;;;;;;;27.33;51.31;100729.29;1829390;76;20248;-56
2021/07/28 07:59:09;;;;;;;;;;;;;;;27.34;51.32;100732.28;1830025;77;20245;-58
2021/07/28 08:01:35;;;;;;;;;;;;;;;27.33;51.31;100727.28;1833198;76;20170;-57
2021/07/28 08:04:01;;;;;;;;;;;;;;;27.33;51.29;100725.88;1837258;77;20944;-57
2021/07/28 08:06:27;;;;;;;;;;;;;;;27.33;51.29;100731.47;1828277;76;20224;-57
2021/07/28 08:08:53;;;;;;;;;;;;;;;27.34;51.30;100730.30;1837917;76;20202;-57
2021/07/28 08:11:19;;;;;;;;;;;;;;;27.35;51.26;100728.31;1762753;80;20208;-57
2021/07/28 08:13:45;;;;;;;;;;;;;;;27.35;51.26;100733.32;1786657;78;20186;-57
2021/07/28 08:16:18;;;;;;;;;;;;;;;27.34;51.26;100728.91;1790035;78;21094;-57
2021/07/28 08:18:44;;;;;;;;;;;;;;;27.35;51.24;100729.72;1789136;78;20199;-57
2021/07/28 08:21:11;;;;;;;;;;;;;;;27.36;51.21;100727.16;1796043;78;20461;-57
2021/07/28 08:23:37;;;;;;;;;;;;;;;27.35;51.20;100727.73;1790310;78;20183;-57
2021/07/28 08:26:03;;;;;;;;;;;;;;;27.36;51.19;100724.36;1789681;78;20144;-57
2021/07/28 08:28:29;;;;;;;;;;;;;;;27.35;51.19;100720.75;1788051;78;21213;-57
2021/07/28 08:30:55;;;;;;;;;;;;;;;27.37;51.18;100721.80;1781266;78;21622;-57
2021/07/28 08:33:26;;;;;;;;;;;;;;;27.37;51.17;100714.19;1787930;78;20282;-57
2021/07/28 08:35:56;;;;;;;;;;;;;;;27.36;51.17;100712.59;1791917;78;20217;-58
2021/07/28 08:38:23;;;;;;;;;;;;;;;27.38;51.12;100717.80;1797052;78;20411;-57
2021/07/28 08:40:50;;;;;;;;;;;;;;;27.35;51.05;100716.56;1752470;80;20271;-57
2021/07/28 08:43:20;;;;;;;;;;;;;;;27.32;50.96;100713.70;1755585;80;20179;-57
2021/07/28 08:45:47;;;;;;;;;;;;;;;27.28;50.90;100711.61;1789550;78;20151;-57
2021/07/28 08:48:17;;;;;;;;;;;;;;;27.26;50.88;100715.37;1790301;78;20481;-57
2021/07/28 08:50:47;;;;;;;;;;;;;;;27.26;50.86;100715.95;1786084;78;20188;-57
2021/07/28 08:53:13;;;;;;;;;;;;;;;27.26;50.87;100703.38;1788951;78;20972;-57
2021/07/28 08:55:39;;;;;;;;;;;;;;;27.28;50.77;100708.61;1796778;78;20985;-57
2021/07/28 08:58:09;;;;;;;;;;;;;;;27.27;50.66;100706.41;1759972;80;20180;-57
2021/07/28 09:00:42;;;;;;;;;;;;;;;27.26;50.56;100704.78;1797869;78;20752;-57
2021/07/28 09:03:08;;;;;;;;;;;;;;;27.25;50.48;100706.77;1786574;78;20219;-57
2021/07/28 09:05:45;;;;;;;;;;;;;;;27.25;50.36;100706.77;1789068;78;21075;-58
2021/07/28 09:08:35;;;;;;;;;;;;;;;27.24;50.28;100710.72;1793511;78;20193;-57
2021/07/28 09:11:04;;;;;;;;;;;;;;;27.23;50.16;100703.54;1779995;78;20207;-57
2021/07/28 09:13:35;;;;;;;;;;;;;;;27.22;50.00;100700.52;1784439;78;20135;-57
2021/07/28 09:16:03;;;;;;;;;;;;;;;27.21;49.91;100694.70;1791381;78;20269;-58
2021/07/28 09:18:35;;;;;;;;;;;;;;;27.19;49.80;100692.06;1786812;78;21078;-57
2021/07/28 09:21:03;;;;;;;;;;;;;;;27.17;49.68;100688.23;1787270;78;20196;-57
2021/07/28 09:23:34;;;;;;;;;;;;;;;27.17;49.63;100683.23;1787982;78;20172;-57
2021/07/28 09:26:00;;;;;;;;;;;;;;;27.17;49.55;100689.62;1797490;78;20454;-57
2021/07/28 09:28:26;;;;;;;;;;;;;;;27.16;49.45;100681.60;1793586;78;20212;-57
2021/07/28 09:30:52;;;;;;;;;;;;;;;27.15;49.38;100685.01;1788961;78;21052;-57
2021/07/28 09:33:18;;;;;;;;;;;;;;;27.15;49.30;100682.22;1787731;78;20194;-58
2021/07/28 09:35:56;;;;;;;;;;;;;;;27.16;49.22;100678.81;1788286;78;20223;-57
2021/07/28 09:38:33;;;;;;;;;;;;;;;27.14;49.12;100670.81;1801098;78;20153;-57
2021/07/28 09:41:20;;;;;;;;;;;;;;;27.14;49.01;100670.81;1799052;78;20199;-57
2021/07/28 09:43:48;;;;;;;;;;;;;;;27.13;48.90;100668.38;1795951;78;21305;-58
2021/07/28 09:46:34;;;;;;;;;;;;;;;27.12;48.83;100668.96;1799755;78;20239;-58
2021/07/28 09:49:04;;;;;;;;;;;;;;;27.11;48.76;100670.16;1794171;78;20209;-57
2021/07/28 09:51:35;;;;;;;;;;;;;;;27.10;48.65;100671.33;1785432;78;20461;-58
2021/07/28 09:54:04;;;;;;;;;;;;;;;27.09;48.56;100665.52;1794647;78;20141;-57
2021/07/28 09:56:50;;;;;;;;;;;;;;;27.09;48.50;100664.70;1757347;80;22035;-58
2021/07/28 09:59:17;;;;;;;;;;;;;;;27.09;48.44;100666.91;1766633;80;20386;-58
2021/07/28 10:01:44;;;;;;;;;;;;;;;27.08;48.31;100662.48;1786393;78;20200;-58
2021/07/28 10:04:12;;;;;;;;;;;;;;;27.08;48.24;100658.30;1789652;78;20487;-58
2021/07/28 10:06:39;;;;;;;;;;;;;;;27.08;48.17;100656.09;1807433;78;20253;-58
2021/07/28 10:09:11;;;;;;;;;;;;;;;27.06;48.08;100655.08;1798904;78;21117;-58
2021/07/28 10:11:42;;;;;;;;;;;;;;;27.06;48.00;100650.08;1754735;80;20136;-58
2021/07/28 10:14:09;;;;;;;;;;;;;;;27.04;47.90;100640.66;1791911;78;20184;-58
2021/07/28 10:16:35;;;;;;;;;;;;;;;27.04;47.81;100642.05;1792598;78;20393;-57
2021/07/28 10:19:03;;;;;;;;;;;;;;;27.05;47.70;100647.06;1782582;78;20167;-58
2021/07/28 10:21:33;;;;;;;;;;;;;;;27.04;47.60;100642.05;1781444;80;21162;-57
2021/07/28 10:23:59;;;;;;;;;;;;;;;27.04;47.52;100642.05;1784121;78;20430;-57
2021/07/28 10:26:25;;;;;;;;;;;;;;;27.03;47.45;100636.86;1779996;78;20158;-58
2021/07/28 10:28:51;;;;;;;;;;;;;;;27.04;47.34;100635.66;1797357;77;20192;-58
2021/07/28 10:31:18;;;;;;;;;;;;;;;27.04;47.27;100632.28;1785783;80;20215;-58
2021/07/28 10:33:47;;;;;;;;;;;;;;;27.04;47.20;100637.05;1785652;80;20908;-58
2021/07/28 10:36:13;;;;;;;;;;;;;;;27.04;47.12;100631.47;1783481;78;20136;-58
2021/07/28 10:38:54;;;;;;;;;;;;;;;27.04;47.05;100627.28;1773876;79;20146;-57
2021/07/28 10:41:43;;;;;;;;;;;;;;;27.05;46.99;100626.11;1799560;78;20404;-57
2021/07/28 10:44:17;;;;;;;;;;;;;;;27.05;46.93;100634.49;1755726;80;20224;-57
2021/07/28 10:46:56;;;;;;;;;;;;;;;27.04;46.85;100623.91;1764619;80;22766;-56
2021/07/28 10:49:38;;;;;;;;;;;;;;;27.06;46.80;100627.73;1793701;78;20305;-56
2021/07/28 10:52:05;;;;;;;;;;;;;;;27.06;46.71;100620.17;1782927;78;20294;-57
2021/07/28 10:54:51;;;;;;;;;;;;;;;27.06;46.66;100614.59;1795088;78;20457;-56
2021/07/28 10:57:38;;;;;;;;;;;;;;;27.08;46.66;100622.58;1795855;78;20131;-57
2021/07/28 11:00:08;;;;;;;;;;;;;;;27.09;46.68;100616.64;1792295;78;20942;-56
2021/07/28 11:02:59;;;;;;;;;;;;;;;27.14;46.71;100620.55;1798597;78;20128;-57
2021/07/28 11:05:27;;;;;;;;;;;;;;;27.16;46.73;100608.41;1799561;78;20385;-57
2021/07/28 11:08:05;;;;;;;;;;;;;;;27.19;46.71;100608.27;1786695;78;20654;-57
2021/07/28 11:10:43;;;;;;;;;;;;;;;27.21;46.76;100606.72;1789289;78;20156;-57
2021/07/28 11:13:10;;;;;;;;;;;;;;;27.23;46.78;100612.77;1798020;78;20552;-57
2021/07/28 11:15:36;;;;;;;;;;;;;;;27.26;46.80;100604.22;1793591;78;20130;-57
2021/07/28 11:18:02;;;;;;;;;;;;;;;27.28;46.81;100611.05;1768880;80;20372;-57
2021/07/28 11:20:29;;;;;;;;;;;;;;;27.30;46.83;100609.29;1785709;78;20136;-57
2021/07/28 11:23:24;;;;;;;;;;;;;;;27.32;46.85;100599.97;1787682;79;20131;-57
2021/07/28 11:25:51;;;;;;;;;;;;;;;27.34;46.86;100602.38;1716569;82;21164;-57
2021/07/28 11:28:20;;;;;;;;;;;;;;;27.36;46.89;100595.84;1677690;83;20393;-55
2021/07/28 11:31:02;;;;;;;;;;;;;;;27.38;46.90;100596.27;1731494;80;20150;-58
2021/07/28 11:33:29;;;;;;;;;;;;;;;27.40;46.94;100596.72;1760714;80;20389;-58
2021/07/28 11:35:55;;;;;;;;;;;;;;;27.41;46.95;100592.76;1764959;80;20164;-56
2021/07/28 11:38:24;;;;;;;;;;;;;;;27.43;46.97;100597.38;1787302;78;21132;-56
2021/07/28 11:40:51;;;;;;;;;;;;;;;27.45;47.00;100593.64;1799390;78;20197;-56
2021/07/28 11:43:35;;;;;;;;;;;;;;;27.46;47.00;100590.45;1797227;78;20158;-55
2021/07/28 11:46:15;;;;;;;;;;;;;;;27.48;47.01;100588.14;1785731;78;20137;-58
2021/07/28 11:48:44;;;;;;;;;;;;;;;27.50;47.02;100589.15;1791152;78;20140;-58
2021/07/28 11:51:15;;;;;;;;;;;;;;;27.51;47.05;100580.41;1785292;78;21208;-57
2021/07/28 11:53:42;;;;;;;;;;;;;;;27.53;47.05;100580.05;1791720;78;20184;-58
2021/07/28 11:56:14;;;;;;;;;;;;;;;27.54;47.06;100576.08;1797264;78;20155;-58
2021/07/28 11:58:43;;;;;;;;;;;;;;;27.56;47.10;100568.94;1796233;78;20247;-58
2021/07/28 12:01:20;;;;;;;;;;;;;;;27.58;47.12;100569.97;1803644;78;20130;-58
2021/07/28 12:03:49;;;;;;;;;;;;;;;27.60;47.12;100569.00;1789311;78;21113;-57
2021/07/28 12:06:15;;;;;;;;;;;;;;;27.61;47.13;100560.25;1787908;78;20167;-57
2021/07/28 12:08:41;;;;;;;;;;;;;;;27.62;47.14;100559.08;1788736;78;20152;-57
2021/07/28 12:11:08;;;;;;;;;;;;;;;27.65;47.16;100554.72;1785755;78;20170;-58
2021/07/28 12:13:43;;;;;;;;;;;;;;;27.65;47.17;100559.72;1799462;78;20191;-58
2021/07/28 12:16:09;;;;;;;;;;;;;;;27.67;47.18;100549.55;1804048;78;21186;-57
2021/07/28 12:18:44;;;;;;;;;;;;;;;27.68;47.21;100546.98;1849785;76;20441;-58
2021/07/28 12:21:10;;;;;;;;;;;;;;;27.70;47.21;100547.43;1837690;76;20134;-58
2021/07/28 12:23:36;;;;;;;;;;;;;;;27.71;47.25;100540.64;1847047;76;20128;-58
2021/07/28 12:26:02;;;;;;;;;;;;;;;27.74;47.23;100546.09;1844291;76;20142;-57
2021/07/28 12:28:48;;;;;;;;;;;;;;;27.74;47.24;100537.70;1839782;76;21206;-58
2021/07/28 12:31:27;;;;;;;;;;;;;;;27.75;47.25;100538.73;1846043;76;20126;-57
2021/07/28 12:33:54;;;;;;;;;;;;;;;27.77;47.28;100535.55;1846542;76;20129;-58
2021/07/28 12:36:27;;;;;;;;;;;;;;;27.79;47.26;100535.41;1841550;76;20169;-57
2021/07/28 12:38:53;;;;;;;;;;;;;;;27.80;47.26;100523.03;1847251;76;20205;-57
2021/07/28 12:41:19;;;;;;;;;;;;;;;27.81;47.28;100531.64;1844261;76;21062;-58